Terminal Aerodrome Forecast
Issued by NWS Chicago, IL

Home | Current Version | Previous Version | Text Only | Print | Product List | Glossary On
Versions: 1 2 3 4 5 6 7 8 9 10 11 12 13 14 15 16 17 18 19 20 21 22 23 24 25 26 27 28 29 30 31
000
FTUS43 KLOT 291120
TAFRFD
TAF
KRFD 291120Z 2912/3012 07006KT 1SM BR OVC002
      TEMPO 2912/2914 1/2SM FG
     FM291500 08011KT 3SM BR OVC006
     FM291700 08013KT P6SM FEW008 BKN120
     FM291900 07015G23KT P6SM SCT050 BKN080
     FM300500 07013G22KT 4SM -SHRA SCT020 OVC040
     FM300800 08014G23KT 3SM -SHRA BR BKN018 OVC030 PROB30 3008/3012
      2SM -TSRA OVC030CB=

USA.gov is the U.S. government's official web portal to all federal, state and local government web resources and services.